Laupheim Air Base

ETHL · Baden-Württemberg, Deutschland

METAR-Geschichte ETHL · Heeresflugplatz Laupheim

Unten siehst du die METARs der letzten paar Tage. Wähle ein Jahr, um ältere METARs ab dem Jahr 2007 zu durchsuchen.

23. Mai 2024

Uhrzeit Code Wetter Temp. Sichtweite Wolkendecke Wind METAR/SPECI
04:20
I
8 °C 3,5 km - 140° 140° 1 kt METAR ETHL 230220Z 14001KT 3500 VCFG MIFG FEW070 08/08 Q1016 YLO
04:01
L
9 °C 1,2 km - 200° 200° 2 kt METAR ETHL 230201Z 20002KT 1200 VCFG MIFG FEW070 09/08 Q1016 AMB
03:49
M
9 °C 5 km - Var Var 1 kt METAR ETHL 230149Z VRB01KT 5000 MIFG BR FEW070 09/09 Q1016 WHT
03:20
V
9 °C 10 km+ - 250° 250° 4 kt METAR ETHL 230120Z 25004KT 9999 MIFG FEW070 09/09 Q1015 BLU+
02:20
V
10 °C 10 km+ - 240° 240° 3 kt METAR ETHL 230020Z 24003KT 9999 FEW070 10/09 Q1016 BLU+
01:20
V
10 °C 10 km+ - 220° 220° 2 kt METAR ETHL 222320Z 22002KT 9999 SCT070 10/10 Q1016 BLU+
00:20
V
11 °C 10 km+ - Var Var 2 kt METAR ETHL 222220Z VRB02KT 9999 SCT070 11/10 Q1016 BLU+

22. Mai 2024

Uhrzeit Code Wetter Temp. Sichtweite Wolkendecke Wind METAR/SPECI
23:20
V
11 °C 10 km+ - 200° 200° 2 kt METAR ETHL 222120Z 20002KT 9999 SCT160 11/10 Q1016 BLU+
22:20
V
13 °C 10 km+ - 210° 210° 3 kt METAR ETHL 222020Z 21003KT 9999 FEW030 SCT200 13/11 Q1015 BLU+
21:20
V
14 °C 10 km+ - Var Var 3 kt METAR ETHL 221920Z VRB03KT 9999 FEW030TCU SCT050 14/11 Q1014 BLU+
20:20
V
15 °C 10 km+ 10.000 ft 270° 270° 3 kt METAR ETHL 221820Z 27003KT 9999 FEW030TCU SCT060 BKN100 15/11 Q1014 BLU
19:20
V
16 °C 10 km+ 6.000 ft 250° 250° 3 kt METAR ETHL 221720Z 25003KT 9999 -SHRA SCT025TCU BKN060 16/11 Q1013 BLU
18:20
V
16 °C 10 km+ 5.000 ft 270° 270° 4 kt METAR ETHL 221620Z 27004KT 9999 VCSH FEW020 SCT025TCU BKN050 16/10 Q1013 BLU
17:20
V
17 °C 10 km+ 8.000 ft 300° 300° 4 kt METAR ETHL 221520Z 30004KT 9999 VCSH FEW025TCU SCT050 BKN080 17/11 Q1013 BLU FCST CNL
16:20
V
15 °C 10 km+ - 250° 250° 7 kt METAR ETHL 221420Z 25007KT 9999 -SHRA SCT025TCU SCT050 15/11 Q1013 BLU+BLU+ TEMPO YLO
15:20
V
17 °C 10 km+ - 250° 250° 6 kt METAR ETHL 221320Z 25006KT 9999 VCSH FEW025 SCT070 17/11 Q1012 BLU+BLU+ TEMPO YLO
14:20
V
15 °C 10 km+ 6.000 ft 280° 280° 5 kt METAR ETHL 221220Z 28005KT 9999 VCSH FEW020 SCT025CB BKN060 15/12 Q1013 RESHRA BLU BLU TEMPO YLO
14:10
V
14 °C 8 km 5.000 ft 260° 260° 7 kt METAR ETHL 221210Z 26007KT 8000 -SHRA FEW020 SCT025CB BKN050 14/12 Q1013 RESHRA BLU BLU TEMPO YLO
14:03
M
14 °C 5 km 5.000 ft 270° 270° 8 kt METAR ETHL 221203Z 27008KT 5000 SHRA FEW020 SCT025CB BKN050 14/11 Q1013 WHT BLU TEMPO YLO
13:49
I
14 °C 4,8 km 5.000 ft 270° 270° 8 kt METAR ETHL 221149Z 27008KT 4800 -SHRA FEW020 SCT025CB BKN050 14/12 Q1013 GRN BLU TEMPO YLO
13:20
M
13 °C 6 km 6.000 ft 290° 290° 7 kt METAR ETHL 221120Z 29007KT 6000 -SHRA FEW020 SCT025CB BKN060 13/10 Q1013 RESHRA WHT BLU TEMPO YLO
12:58
I
12 °C 4 km 2.500 ft 300° 300° 6 kt METAR ETHL 221058Z 30006KT 4000 SHRA FEW020 BKN025CB 12/10 Q1013 GRN BLU TEMPO YLO
12:34
I
14 °C 3 km 6.000 ft 270° 270° 10 kt METAR ETHL 221034Z 27010KT 3000 SHRA SCT025 SCT040 BKN060 14/10 Q1013 YLO BLU TEMPO GRN
12:30
M
15 °C 5 km 6.000 ft 260° 260° 12 kt METAR ETHL 221030Z 26012KT 5000 SHRA SCT025 SCT040 BKN060 15/10 Q1013 WHT BLU TEMPO GRN
12:20
V
15 °C 10 km+ 6.000 ft 260° 260° 12 kt METAR ETHL 221020Z 26012KT 9999 SHRA SCT025 SCT040 BKN060 15/10 Q1012 BLU BLU TEMPO GRN
11:20
V
16 °C 10 km+ 7.000 ft 250° 250° 11 kt METAR ETHL 220920Z 25011KT 9999 SCT022 SCT040 BKN070 16/10 Q1012 BLU BLU TEMPO GRN
10:20
V
15 °C 10 km+ 7.000 ft 230° 230° 11 kt METAR ETHL 220820Z 23011KT 9999 SCT018 SCT041 BKN070 15/10 Q1012 BLU BLU TEMPO GRN
09:20
V
14 °C 10 km+ 8.000 ft 240° 240° 9 kt METAR ETHL 220720Z 24009KT 9999 SCT013 SCT047 BKN080 14/10 Q1012 BLU BLU TEMPO GRN
08:20
V
13 °C 10 km+ 4.800 ft 240° 240° 9 kt METAR ETHL 220620Z 24009KT 9999 FEW013 BKN048 BKN070 13/10 Q1011 BLU BLU TEMPO GRN
07:20
V
12 °C 10 km+ 6.000 ft 220° 220° 6 kt METAR ETHL 220520Z 22006KT 9999 FEW038 BKN060 12/09 Q1011 BLU BLU TEMPO GRN
06:20
V
11 °C 10 km+ 7.000 ft 230° 230° 5 kt METAR ETHL 220420Z 23005KT 9999 FEW040 BKN070 11/09 Q1010 BLU BLU TEMPO GRN
05:20
V
11 °C 10 km+ 17.000 ft 220° 220° 7 kt METAR ETHL 220320Z 22007KT 9999 SCT048 BKN170 11/10 Q1010 BLU
04:20
V
12 °C 10 km+ 14.000 ft 230° 230° 8 kt METAR ETHL 220220Z 23008KT 9999 FEW048 BKN140 12/10 Q1010 BLU
03:20
V
11 °C 10 km+ 15.000 ft 230° 230° 7 kt METAR ETHL 220120Z 23007KT 9999 FEW060 BKN150 11/10 Q1010 BLU
02:20
V
12 °C 10 km+ 15.000 ft 220° 220° 7 kt METAR ETHL 220020Z 22007KT 9999 SCT060 BKN150 12/10 Q1009 BLU
01:20
V
12 °C 10 km+ 13.000 ft 220° 220° 5 kt METAR ETHL 212320Z 22005KT 9999 SCT042 BKN130 12/10 Q1009 BLU
00:20
V
12 °C 10 km+ 11.000 ft 220° 220° 6 kt METAR ETHL 212220Z 22006KT 9999 FEW060 BKN110 12/11 Q1009 BLU

21. Mai 2024

Uhrzeit Code Wetter Temp. Sichtweite Wolkendecke Wind METAR/SPECI
23:20
V
12 °C 10 km+ 11.000 ft 230° 230° 7 kt METAR ETHL 212120Z 23007KT 9999 FEW020 BKN110 12/11 Q1009 BLU
22:20
V
12 °C 10 km+ 11.000 ft 220° 220° 6 kt METAR ETHL 212020Z 22006KT 9999 SCT020 BKN110 12/11 Q1009 BLU
21:20
V
13 °C 10 km+ 8.000 ft 220° 220° 6 kt METAR ETHL 211920Z 22006KT 9999 SCT020 BKN080 13/11 Q1009 BLU
20:20
M
14 °C 10 km+ 2.000 ft 230° 230° 6 kt METAR ETHL 211820Z 23006KT 9999 BKN020 BKN080 14/11 Q1008 WHT
19:20
M
14 °C 10 km+ 2.000 ft 240° 240° 8 kt METAR ETHL 211720Z 24008KT 9999 BKN020 BKN060 14/11 Q1008 WHT
18:20
M
14 °C 10 km+ 2.200 ft 250° 250° 13 kt METAR ETHL 211620Z 25013KT 9999 BKN022 OVC042 14/11 Q1008 WHT
17:20
V
14 °C 10 km+ 3.700 ft 250° 250° 12 kt METAR ETHL 211520Z 25012KT 9999 -RA SCT016 OVC037 14/11 Q1008 BLU
17:00
V
14 °C 10 km+ 4.000 ft 250° 250° 6 - 17 kt METAR ETHL 211500Z 25006G17KT 9999 -RA SCT016 OVC040 14/12 Q1008 BLU FCST CNL
16:20
M
14 °C 10 km+ 1.100 ft 250° 250° 12 kt METAR ETHL 211420Z 25012KT 9999 -RA BKN011 OVC033 14/12 Q1008 GRN BLU TEMPO GRN
15:20
I
13 °C 10 km+ 900 ft 240° 240° 10 kt METAR ETHL 211320Z 24010KT 9999 -RA BKN009 OVC023 13/12 Q1008 GRN BLU TEMPO GRN
14:20
I
13 °C 9 km 800 ft 250° 250° 12 kt METAR ETHL 211220Z 25012KT 9000 -RADZ BKN008 OVC019 13/12 Q1007 GRN GRN TEMPO YLO
13:20
I
13 °C 7 km 700 ft 240° 240° 13 kt METAR ETHL 211120Z 24013KT 7000 -RADZ BKN007 OVC022 13/12 Q1007 GRN GRN TEMPO YLO
12:20
I
13 °C 9 km 700 ft 240° 240° 10 kt METAR ETHL 211020Z 24010KT 9000 -RA BKN007 13/12 Q1007 GRN GRN TEMPO YLO
11:43
I
13 °C 7 km 700 ft 240° 240° 2 - 12 kt METAR ETHL 210943Z 24002G12KT 7000 -RA BKN007 BKN017 13/12 Q1007 GRN BLU TEMPO GRN
11:20
M
13 °C 8 km 1.700 ft 240° 240° 10 kt METAR ETHL 210920Z 24010KT 8000 -RA SCT007 BKN017 13/12 Q1007 WHT BLU TEMPO GRN
10:20
M
13 °C 9 km 1.700 ft 230° 230° 10 kt METAR ETHL 210820Z 23010KT 9000 -RA FEW008 BKN017 13/11 Q1007 WHT BLU TEMPO GRN
09:20
M
13 °C 7 km 1.200 ft 210° 210° 8 kt METAR ETHL 210720Z 21008KT 7000 -RA FEW009 BKN012 BKN040 13/12 Q1007 GRN BLU TEMPO GRN
08:20
M
13 °C 7 km 4.000 ft 190° 190° 4 kt METAR ETHL 210620Z 19004KT 7000 -RA SCT009 BKN040 BKN070 13/12 Q1007 WHT WHT BECMG GRN
07:20
V
13 °C 10 km+ 8.000 ft 190° 190° 7 kt METAR ETHL 210520Z 19007KT 9999 SCT009 BKN080 BKN150 13/12 Q1006 BLU BLU BECMG GRN
06:20
V
14 °C 10 km+ 18.000 ft 230° 230° 4 kt METAR ETHL 210420Z 23004KT 9999 FEW050 SCT090 BKN180 14/11 Q1005 BLU BLU
05:20
V
14 °C 10 km+ 11.000 ft 020° 020° 3 kt METAR ETHL 210320Z 02003KT 9999 FEW050 BKN110 14/10 Q1006 BLU
04:20
V
14 °C 10 km+ 10.000 ft 270° 270° 2 kt METAR ETHL 210220Z 27002KT 9999 BKN100 14/10 Q1006 BLU
03:20
V
15 °C 10 km+ 13.000 ft 030° 030° 4 kt METAR ETHL 210120Z 03004KT 9999 BKN130 15/10 Q1006 BLU
02:20
V
15 °C 10 km+ 12.000 ft 050° 050° 4 kt METAR ETHL 210020Z 05004KT 9999 BKN120 15/10 Q1006 BLU
01:20
V
16 °C 10 km+ 11.000 ft 030° 030° 3 kt METAR ETHL 202320Z 03003KT 9999 BKN110 16/10 Q1007 BLU
00:20
V
16 °C 10 km+ 11.000 ft 050° 050° 7 kt METAR ETHL 202220Z 05007KT 9999 BKN110 16/11 Q1007 BLU

20. Mai 2024

Uhrzeit Code Wetter Temp. Sichtweite Wolkendecke Wind METAR/SPECI
23:20
V
17 °C 10 km+ 20.000 ft 040° 040° 5 kt METAR ETHL 202120Z 04005KT 9999 SCT100 BKN200 17/11 Q1008 BLU+
22:20
V
17 °C 10 km+ - 040° 040° 5 kt METAR ETHL 202020Z 04005KT 9999 FEW110 SCT210 17/11 Q1008 BLU+
21:20
V
17 °C 10 km+ 22.000 ft 040° 040° 5 kt METAR ETHL 201920Z 04005KT 9999 FEW120 BKN220 17/11 Q1008 BLU+
20:20
V
20 °C 10 km+ 23.000 ft 060° 060° 5 kt METAR ETHL 201820Z 06005KT 9999 FEW040 BKN230 20/11 Q1008 BLU+
19:20
V
21 °C 10 km+ 23.000 ft 060° 060° 8 kt METAR ETHL 201720Z 06008KT 9999 FEW040 BKN230 21/11 Q1008 BLU+
18:20
V
22 °C 10 km+ - 040° 040° 8 kt METAR ETHL 201620Z 04008KT 9999 FEW045 SCT220 22/10 Q1008 BLU+
17:20
V
22 °C 10 km+ - 030° 030° 7 kt METAR ETHL 201520Z 03007KT 9999 FEW040 SCT240 22/11 Q1008 BLU+
16:20
V
22 °C 10 km+ - 040° 040° 7 kt METAR ETHL 201420Z 04007KT 9999 FEW040 22/10 Q1009 BLU+
15:20
V
22 °C 10 km+ - 040° 040° 8 kt METAR ETHL 201320Z 04008KT 9999 FEW040 22/10 Q1009 BLU+
14:20
V
22 °C 10 km+ - 050° 050° 6 kt METAR ETHL 201220Z 05006KT 9999 FEW040 22/09 Q1010 BLU+
13:20
V
21 °C 10 km+ - 080° 080° 4 kt METAR ETHL 201120Z 08004KT 9999 FEW040 21/10 Q1011 BLU+
12:20
V
20 °C 10 km+ - 060° 060° 5 kt METAR ETHL 201020Z 06005KT 9999 FEW030 20/09 Q1011 BLU+
11:20
V
19 °C 10 km+ - 050° 050° 4 kt METAR ETHL 200920Z 05004KT 9999 FEW240 19/10 Q1011 BLU+
10:20
V
17 °C 10 km+ - 080° 080° 4 kt METAR ETHL 200820Z 08004KT 9999 FEW130 17/10 Q1011 BLU+
09:20
V
16 °C 10 km+ - 090° 090° 5 kt METAR ETHL 200720Z 09005KT 9999 FEW130 16/10 Q1011 BLU+
08:20
V
13 °C 10 km+ - 080° 080° 3 kt METAR ETHL 200620Z 08003KT 9999 FEW240 13/10 Q1011 BLU+
Eine Änderung melden